Time;durP1;ratioP1;P1;durP2;ratioP2;P2;SDS_P1;SDS_P2;PMS_P1;PMS_P2;Temp;Humidity;BMP_temperature;BMP_pressure;BME280_temperature;BME280_humidity;BME280_pressure;Samples;Min_cycle;Max_cycle;Signal;HPM_P1;HPM_P2
2021/08/04 00:02:23;8966.00;0.03;16.16;0.00;0.00;0.62;;;;;21.40;1.00;;;;;;2272264;61;1329;-79
2021/08/04 00:04:53;0.00;0.00;0.62;0.00;0.00;0.62;;;;;21.50;1.00;;;;;;2272111;61;1017;-81
2021/08/04 00:07:22;0.00;0.00;0.62;0.00;0.00;0.62;;;;;21.50;1.00;;;;;;2272263;61;945;-81
2021/08/04 00:10:08;153557.00;0.51;265.94;0.00;0.00;0.62;;;;;21.70;1.00;;;;;;2264372;61;1022;-82
2021/08/04 00:12:42;154642.00;0.52;267.81;0.00;0.00;0.62;;;;;21.60;1.00;;;;;;2264350;61;1374;-82
2021/08/04 00:15:13;136914.00;0.46;237.25;0.00;0.00;0.62;;;;;21.60;1.00;;;;;;2264314;61;962;-80
2021/08/04 00:17:41;37228.00;0.12;65.09;0.00;0.00;0.62;;;;;21.40;1.00;;;;;;2252625;61;965;-84
2021/08/04 00:20:10;11148.00;0.04;19.94;0.00;0.00;0.62;;;;;21.60;1.00;;;;;;2244210;61;2015;-79
2021/08/04 00:22:37;0.00;0.00;0.62;0.00;0.00;0.62;;;;;21.60;1.00;;;;;;2256264;61;1431;-81
2021/08/04 00:25:06;0.00;0.00;0.62;0.00;0.00;0.62;;;;;21.60;1.00;;;;;;2256388;61;1000;-80
2021/08/04 00:27:34;0.00;0.00;0.62;0.00;0.00;0.62;;;;;21.60;1.00;;;;;;2251882;61;957;-83
2021/08/04 00:30:01;120484.00;0.40;208.92;17671.00;0.06;31.24;;;;;21.60;1.00;;;;;;2259721;61;1022;-80
2021/08/04 00:35:12;12542.00;0.04;22.35;0.00;0.00;0.62;;;;;21.60;1.00;;;;;;2282084;60;1389;-82
2021/08/04 00:37:48;116194.00;0.39;201.52;0.00;0.00;0.62;;;;;21.60;1.00;;;;;;2280883;60;988;-84
2021/08/04 00:40:44;146994.00;0.49;254.63;0.00;0.00;0.62;;;;;21.70;1.00;;;;;;2280306;60;2010;-80
2021/08/04 00:43:41;257373.00;0.86;444.63;68296.00;0.23;118.82;;;;;21.90;1.00;;;;;;2280697;60;1348;-78
2021/08/04 00:46:25;475829.00;1.59;820.22;133452.00;0.44;231.28;;;;;21.90;1.00;;;;;;2264207;61;981;-80
2021/08/04 00:49:23;224845.00;0.75;388.68;0.00;0.00;0.62;;;;;21.80;1.00;;;;;;2264105;61;1077;-81
2021/08/04 00:52:17;177244.00;0.59;306.74;0.00;0.00;0.62;;;;;21.30;1.00;;;;;;2248055;61;1404;-82
2021/08/04 00:54:50;189992.00;0.63;328.69;0.00;0.00;0.62;;;;;21.20;1.00;;;;;;2236240;62;1156;-82
2021/08/04 00:57:25;143104.00;0.48;247.92;0.00;0.00;0.62;;;;;20.90;1.00;;;;;;2236391;62;1183;-80
2021/08/04 00:59:54;245388.00;0.82;424.02;51308.00;0.17;89.45;;;;;20.80;1.00;;;;;;2236369;62;986;-82
2021/08/04 01:02:28;1574.00;0.01;3.35;0.00;0.00;0.62;;;;;20.90;1.00;;;;;;2236351;62;1967;-81
2021/08/04 01:04:58;115299.00;0.38;199.97;0.00;0.00;0.62;;;;;21.00;1.00;;;;;;2236360;62;1004;-79
2021/08/04 01:07:30;73807.00;0.25;128.34;0.00;0.00;0.62;;;;;20.80;1.00;;;;;;2236206;62;1053;-81
2021/08/04 01:10:05;6378.00;0.02;11.67;0.00;0.00;0.62;;;;;20.80;1.00;;;;;;2242461;61;1038;-82
2021/08/04 01:12:41;0.00;0.00;0.62;0.00;0.00;0.62;;;;;20.90;1.00;;;;;;2238140;61;1469;-79
2021/08/04 01:15:09;0.00;0.00;0.62;0.00;0.00;0.62;;;;;20.80;1.00;;;;;;2248071;61;1097;-80
2021/08/04 01:17:41;0.00;0.00;0.62;0.00;0.00;0.62;;;;;20.90;1.00;;;;;;2248058;61;990;-81
2021/08/04 01:20:14;0.00;0.00;0.62;0.00;0.00;0.62;;;;;21.10;1.00;;;;;;2238563;61;1914;-80
2021/08/04 01:22:53;268986.00;0.90;464.60;119453.00;0.40;207.14;;;;;21.40;1.00;;;;;;2244170;61;1370;-84
2021/08/04 01:25:25;128089.00;0.43;222.03;59301.00;0.20;103.27;;;;;21.30;1.00;;;;;;2253451;61;974;-82
2021/08/04 01:30:23;0.00;0.00;0.62;0.00;0.00;0.62;;;;;21.40;1.00;;;;;;2282271;60;1409;-81
2021/08/04 01:32:51;65162.00;0.22;113.40;0.00;0.00;0.62;;;;;21.50;1.00;;;;;;2280442;60;1383;-82
2021/08/04 01:35:24;188402.00;0.63;325.96;53474.00;0.18;93.19;;;;;21.40;1.00;;;;;;2280758;60;1028;-80
2021/08/04 01:37:53;137307.00;0.46;237.93;0.00;0.00;0.62;;;;;21.60;1.00;;;;;;2280432;60;982;-81
2021/08/04 01:40:20;208712.00;0.70;360.92;67398.00;0.22;117.26;;;;;21.50;1.00;;;;;;2279863;60;1990;-80
2021/08/04 01:42:53;205391.00;0.68;355.20;0.00;0.00;0.62;;;;;21.30;1.00;;;;;;2280468;60;1186;-79
2021/08/04 01:45:28;211665.00;0.71;366.00;0.00;0.00;0.62;;;;;21.30;1.00;;;;;;2280619;60;938;-82
2021/08/04 01:47:56;52562.00;0.18;91.62;0.00;0.00;0.62;;;;;21.40;1.00;;;;;;2271815;61;1303;-82
2021/08/04 01:50:24;11789.00;0.04;21.05;0.00;0.00;0.62;;;;;21.50;1.00;;;;;;2265321;61;992;-80
2021/08/04 01:52:53;26213.00;0.09;46.03;0.00;0.00;0.62;;;;;21.50;1.00;;;;;;2268422;61;1369;-81
2021/08/04 01:55:20;0.00;0.00;0.62;0.00;0.00;0.62;;;;;21.30;1.00;;;;;;2268581;61;996;-83
2021/08/04 01:57:48;0.00;0.00;0.62;0.00;0.00;0.62;;;;;21.00;1.00;;;;;;2272045;61;935;-80
2021/08/04 02:00:15;10446.00;0.03;18.72;0.00;0.00;0.62;;;;;20.60;1.00;;;;;;2271292;61;961;-81
2021/08/04 02:02:43;0.00;0.00;0.62;0.00;0.00;0.62;;;;;20.50;1.00;;;;;;2262248;61;2037;-81
2021/08/04 02:05:11;11888.00;0.04;21.22;0.00;0.00;0.62;;;;;20.70;1.00;;;;;;2263546;60;1061;-81
2021/08/04 02:07:48;0.00;0.00;0.62;0.00;0.00;0.62;;;;;21.00;1.00;;;;;;2271912;61;1031;-80
2021/08/04 02:10:24;0.00;0.00;0.62;0.00;0.00;0.62;;;;;21.10;1.00;;;;;;2272020;61;1040;-81
2021/08/04 02:12:57;24883.00;0.08;43.73;0.00;0.00;0.62;;;;;21.20;1.00;;;;;;2265303;61;1448;-82
2021/08/04 02:15:29;0.00;0.00;0.62;0.00;0.00;0.62;;;;;21.10;1.00;;;;;;2271990;61;1033;-79
2021/08/04 02:20:45;10326.00;0.03;18.51;0.00;0.00;0.62;;;;;21.10;1.00;;;;;;2282396;60;1978;-82
2021/08/04 02:28:22;50633.00;0.17;88.28;0.00;0.00;0.62;;;;;21.30;1.00;;;;;;2282706;61;1315;-80
2021/08/04 02:30:59;366742.00;1.22;632.64;148186.00;0.49;256.68;;;;;21.40;1.00;;;;;;2280500;60;984;-81
2021/08/04 02:33:31;329095.00;1.10;567.93;74500.00;0.25;129.54;;;;;21.40;1.00;;;;;;2280489;60;1310;-80
2021/08/04 02:38:34;244260.00;0.81;422.08;73674.00;0.25;128.11;;;;;21.50;1.00;;;;;;2282113;60;1326;-82
2021/08/04 02:41:21;;;;;;;;;;;;;;;;;;;;;
2021/08/04 02:44:00;149716.00;0.50;259.32;0.00;0.00;0.62;;;;;21.60;1.00;;;;;;2272587;61;1016;-82
2021/08/04 02:47:16;192075.00;0.64;332.28;0.00;0.00;0.62;;;;;21.20;1.00;;;;;;2276413;61;945;-81
2021/08/04 02:50:07;163460.00;0.54;283.00;0.00;0.00;0.62;;;;;21.20;1.00;;;;;;2247429;61;1079;-82
2021/08/04 02:55:44;0.00;0.00;0.62;0.00;0.00;0.62;;;;;21.10;1.00;;;;;;2232138;62;1055;-81
2021/08/04 02:58:37;;;;;;;;;;;;;;;;;;;;;
2021/08/04 03:01:15;270111.00;0.90;466.53;0.00;0.00;0.62;;;;;20.80;1.00;;;;;;2226276;62;1928;-81
2021/08/04 03:03:52;257488.00;0.86;444.83;109012.00;0.36;189.13;;;;;20.70;1.00;;;;;;2232727;62;1017;-80
2021/08/04 03:06:27;204859.00;0.68;354.29;95213.00;0.32;165.31;;;;;20.80;1.00;;;;;;2232800;62;1007;-80
2021/08/04 03:08:59;149159.00;0.50;258.36;0.00;0.00;0.62;;;;;20.70;1.00;;;;;;2240108;62;1091;-80
2021/08/04 03:11:31;221396.00;0.74;382.75;0.00;0.00;0.62;;;;;20.70;1.00;;;;;;2237214;62;1331;-80
2021/08/04 03:14:34;267720.00;0.89;462.42;15750.00;0.05;27.91;;;;;20.50;1.00;;;;;;2249063;61;998;-82
2021/08/04 03:17:11;152254.00;0.51;263.69;0.00;0.00;0.62;;;;;20.50;1.00;;;;;;2248303;61;1027;-79
2021/08/04 03:19:47;146983.00;0.49;254.61;0.00;0.00;0.62;;;;;20.70;1.00;;;;;;2248532;61;972;-80
2021/08/04 03:24:59;0.00;0.00;0.62;0.00;0.00;0.62;;;;;20.60;1.00;;;;;;2282661;60;1504;-79
2021/08/04 03:27:28;203270.00;0.68;351.55;85624.00;0.29;148.75;;;;;20.80;1.00;;;;;;2276107;61;1027;-81
2021/08/04 03:30:05;344200.00;1.15;593.89;68371.00;0.23;118.95;;;;;20.90;1.00;;;;;;2273013;61;964;-78
2021/08/04 03:37:35;242561.00;0.81;419.16;69509.00;0.23;120.91;;;;;20.90;1.00;;;;;;2282653;60;1377;-80
2021/08/04 03:40:34;612168.00;2.04;1055.23;175943.00;0.59;304.50;;;;;21.00;1.00;;;;;;2280812;60;1017;-82
2021/08/04 03:43:43;105952.00;0.35;183.84;0.00;0.00;0.62;;;;;21.10;1.00;;;;;;2275883;60;1943;-81
2021/08/04 03:46:46;;;;;;;;;;;;;;;;;;;;;
2021/08/04 03:52:51;182087.00;0.61;315.08;71743.00;0.24;124.77;;;;;21.20;1.00;;;;;;2254727;61;1409;-82
2021/08/04 03:55:46;;;;;;;;;;;;;;;;;;;;;
2021/08/04 03:58:37;27243.00;0.09;47.81;0.00;0.00;0.62;;;;;21.20;1.00;;;;;;2266205;61;1027;-82
2021/08/04 04:05:08;162284.00;0.54;280.97;66394.00;0.22;115.53;;;;;21.50;1.00;;;;;;2252520;61;1040;-80
2021/08/04 04:08:33;170996.00;0.57;295.98;0.00;0.00;0.62;;;;;21.50;1.00;;;;;;2252435;61;1066;-79
2021/08/04 04:14:01;56417.00;0.19;98.28;0.00;0.00;0.62;;;;;21.60;1.00;;;;;;2278600;61;1149;-81
2021/08/04 04:17:16;;;;;;;;;;;;;;;;;;;;;
2021/08/04 04:39:05;0.00;0.00;0.62;0.00;0.00;0.62;;;;;20.60;1.00;;;;;;2208665;62;1008;-80
2021/08/04 04:47:13;222796.00;0.74;385.15;0.00;0.00;0.62;;;;;20.20;1.00;;;;;;2274533;61;1169;-80
2021/08/04 04:50:23;;;;;;;;;;;;;;;;;;;;;
2021/08/04 05:02:25;0.00;0.00;0.62;0.00;0.00;0.62;;;;;21.00;1.00;;;;;;2228176;62;1920;-79
2021/08/04 05:05:02;179503.00;0.60;310.63;45670.00;0.15;79.70;;;;;20.80;1.00;;;;;;2218871;62;1066;-80
2021/08/04 05:07:38;258716.00;0.86;446.94;42902.00;0.14;74.91;;;;;20.20;1.00;;;;;;2228285;62;1034;-81
2021/08/04 05:10:06;35385.00;0.12;61.90;0.00;0.00;0.62;;;;;19.70;1.00;;;;;;2225369;62;1007;-79
2021/08/04 05:12:33;0.00;0.00;0.62;0.00;0.00;0.62;;;;;20.20;1.00;;;;;;2224700;62;1378;-81
2021/08/04 05:15:04;326930.00;1.09;564.21;21223.00;0.07;37.39;;;;;20.40;1.00;;;;;;2224498;62;1279;-81
2021/08/04 05:17:33;173859.00;0.58;300.91;0.00;0.00;0.62;;;;;20.60;1.00;;;;;;2221766;62;1051;-81
2021/08/04 05:20:00;180357.00;0.60;312.10;55192.00;0.18;96.16;;;;;20.80;1.00;;;;;;2224053;62;1073;-80
2021/08/04 05:22:28;183400.00;0.61;317.34;29467.00;0.10;51.66;;;;;20.90;1.00;;;;;;2221454;62;2003;-81
2021/08/04 05:24:55;201308.00;0.67;348.18;40027.00;0.13;69.94;;;;;20.90;1.00;;;;;;2217204;62;1000;-82
2021/08/04 05:27:22;282465.00;0.94;487.78;46730.00;0.16;81.53;;;;;21.10;1.00;;;;;;2217378;62;1035;-81
2021/08/04 05:29:48;120775.00;0.40;209.42;0.00;0.00;0.62;;;;;21.30;1.00;;;;;;2230226;61;1007;-82
2021/08/04 05:32:19;163365.00;0.54;282.84;41532.00;0.14;72.54;;;;;21.40;1.00;;;;;;2248420;61;1287;-80
2021/08/04 05:34:59;188294.00;0.63;325.77;0.00;0.00;0.62;;;;;21.40;1.00;;;;;;2255765;61;966;-81
2021/08/04 05:37:29;173400.00;0.58;300.12;0.00;0.00;0.62;;;;;21.40;1.00;;;;;;2252454;61;1005;-81
2021/08/04 05:49:56;68045.00;0.23;118.38;0.00;0.00;0.62;;;;;22.20;1.00;;;;;;2286199;60;1396;-83
2021/08/04 05:52:24;175493.00;0.58;303.73;70163.00;0.23;122.04;;;;;22.50;1.00;;;;;;2284337;60;1379;-81
2021/08/04 05:54:52;351672.00;1.17;606.73;68895.00;0.23;119.85;;;;;22.50;1.00;;;;;;2280009;60;1000;-81
2021/08/04 05:57:19;427615.00;1.43;737.28;123009.00;0.41;213.27;;;;;22.60;1.00;;;;;;2284505;60;890;-80
2021/08/04 05:59:46;656881.00;2.19;1132.54;164394.00;0.55;284.61;;;;;22.50;1.00;;;;;;2277221;60;989;-79
2021/08/04 06:02:13;315470.00;1.05;544.51;73241.00;0.24;127.36;;;;;22.90;1.00;;;;;;2284493;60;2003;-80
2021/08/04 06:04:40;220577.00;0.74;381.34;64181.00;0.21;111.70;;;;;23.70;1.00;;;;;;2284618;60;906;-81
2021/08/04 06:07:09;195837.00;0.65;338.76;71099.00;0.24;123.66;;;;;24.70;1.00;;;;;;2277124;60;953;-81
2021/08/04 06:09:37;264547.00;0.88;456.97;67028.00;0.22;116.62;;;;;26.00;1.00;;;;;;2283790;60;929;-81
2021/08/04 06:12:06;295286.00;0.98;509.82;75045.00;0.25;130.48;;;;;27.20;1.00;;;;;;2284508;60;1452;-80
2021/08/04 06:14:33;168849.00;0.56;292.28;68191.00;0.23;118.63;;;;;28.10;1.00;;;;;;2279734;61;938;-82
2021/08/04 06:17:00;183422.00;0.61;317.38;67069.00;0.22;116.70;;;;;28.90;1.00;;;;;;2270063;61;981;-82
2021/08/04 06:19:29;284981.00;0.95;492.10;67148.00;0.22;116.83;;;;;29.60;1.00;;;;;;2270150;61;945;-81
2021/08/04 06:21:58;301353.00;1.00;520.25;71190.00;0.24;123.82;;;;;30.40;1.00;;;;;;2279650;61;2002;-80
2021/08/04 06:24:27;166639.00;0.56;288.48;62831.00;0.21;109.37;;;;;30.70;1.00;;;;;;2279678;61;1026;-80
2021/08/04 06:26:55;322798.00;1.08;557.11;69606.00;0.23;121.08;;;;;30.50;1.00;;;;;;2279898;61;1035;-82
2021/08/04 06:29:22;298272.00;0.99;514.95;66932.00;0.22;116.46;;;;;30.00;1.00;;;;;;2269916;61;1012;-79
2021/08/04 06:32:01;339057.00;1.13;585.05;70695.00;0.24;122.96;;;;;29.50;1.00;;;;;;2272449;61;1475;-79
2021/08/04 06:34:28;437337.00;1.46;754.00;65353.00;0.22;113.73;;;;;29.00;1.00;;;;;;2266651;61;1001;-82
2021/08/04 06:36:55;420277.00;1.40;724.67;75968.00;0.25;132.07;;;;;29.00;1.00;;;;;;2264448;61;939;-81
2021/08/04 06:39:22;607324.00;2.02;1046.87;183026.00;0.61;316.70;;;;;29.90;1.00;;;;;;2258161;61;1009;-83
2021/08/04 06:41:49;394647.00;1.32;680.60;66598.00;0.22;115.88;;;;;30.90;1.00;;;;;;2264330;61;1986;-81
2021/08/04 06:44:17;407775.00;1.36;703.17;60829.00;0.20;105.91;;;;;30.90;1.00;;;;;;2261416;61;1097;-79
2021/08/04 06:46:45;385578.00;1.29;665.01;62539.00;0.21;108.87;;;;;32.20;1.00;;;;;;2264569;61;1010;-82
2021/08/04 06:49:12;423585.00;1.41;730.35;114263.00;0.38;198.19;;;;;32.40;1.00;;;;;;2260492;61;982;-83
2021/08/04 06:51:39;308944.00;1.03;533.29;65202.00;0.22;113.47;;;;;32.10;1.00;;;;;;2276521;61;1378;-81
2021/08/04 06:54:06;590181.00;1.97;1017.27;273337.00;0.91;472.08;;;;;31.90;1.00;;;;;;2277772;60;993;-81
2021/08/04 06:56:33;637837.00;2.13;1099.60;67728.00;0.23;117.83;;;;;30.60;1.00;;;;;;2285239;60;1135;-80
2021/08/04 06:59:00;262278.00;0.87;453.07;62150.00;0.21;108.19;;;;;29.60;1.00;;;;;;2285238;60;925;-80
2021/08/04 07:03:56;316585.00;1.06;546.43;49013.00;0.16;85.48;;;;;28.30;1.00;;;;;;2286976;60;1968;-83
2021/08/04 07:06:23;523183.00;1.74;901.75;61816.00;0.21;107.62;;;;;28.00;1.00;;;;;;2285047;60;910;-79
2021/08/04 07:08:51;299570.00;1.00;517.18;63501.00;0.21;110.53;;;;;28.00;1.00;;;;;;2277241;60;1046;-80
2021/08/04 07:11:22;297616.00;0.99;513.82;59569.00;0.20;103.73;;;;;27.50;1.00;;;;;;2284702;60;1406;-80
2021/08/04 07:13:49;221160.00;0.74;382.34;66697.00;0.22;116.05;;;;;27.00;1.00;;;;;;2284722;60;993;-82
2021/08/04 07:16:18;235515.00;0.79;407.04;74724.00;0.25;129.92;;;;;27.10;1.00;;;;;;2276407;61;989;-82
2021/08/04 07:18:45;242089.00;0.81;418.34;67248.00;0.22;117.00;;;;;27.50;1.00;;;;;;2270121;61;999;-81
2021/08/04 07:21:14;193247.00;0.64;334.30;65598.00;0.22;114.15;;;;;27.40;1.00;;;;;;2272907;61;1431;-79
2021/08/04 07:23:46;211440.00;0.70;365.61;66360.00;0.22;115.47;;;;;27.20;1.00;;;;;;2272854;61;2006;-81
2021/08/04 07:26:13;453719.00;1.51;782.18;97368.00;0.32;169.03;;;;;27.20;1.00;;;;;;2272372;61;985;-82
2021/08/04 07:28:41;323029.00;1.08;557.50;66854.00;0.22;116.32;;;;;27.30;1.00;;;;;;2265856;61;949;-82
2021/08/04 07:31:08;193261.00;0.64;334.32;67390.00;0.22;117.25;;;;;27.60;1.00;;;;;;2271906;61;1298;-82
2021/08/04 07:33:35;405598.00;1.35;699.43;60027.00;0.20;104.52;;;;;27.90;1.00;;;;;;2269876;61;1039;-83
2021/08/04 07:36:02;195846.00;0.65;338.77;65125.00;0.22;113.34;;;;;28.30;1.00;;;;;;2268278;61;999;-80
2021/08/04 07:38:30;264450.00;0.88;456.80;63439.00;0.21;110.42;;;;;27.80;1.00;;;;;;2260291;61;988;-81
2021/08/04 07:40:58;270399.00;0.90;467.03;62045.00;0.21;108.01;;;;;27.50;1.00;;;;;;2260519;61;1029;-82
2021/08/04 07:43:25;301445.00;1.00;520.40;58247.00;0.19;101.45;;;;;27.30;1.00;;;;;;2249783;61;1931;-81
2021/08/04 07:45:53;249010.00;0.83;430.25;63969.00;0.21;111.34;;;;;27.10;1.00;;;;;;2260435;61;1121;-81
2021/08/04 07:48:19;261847.00;0.87;452.32;56687.00;0.19;98.75;;;;;27.10;1.00;;;;;;2253664;61;1094;-81
2021/08/04 07:53:14;353201.00;1.18;609.36;110693.00;0.37;192.03;;;;;27.50;1.00;;;;;;2283028;61;1288;-82
2021/08/04 07:55:43;305024.00;1.02;526.56;61943.00;0.21;107.84;;;;;28.00;1.00;;;;;;2270633;60;1006;-80
2021/08/04 07:58:10;197927.00;0.66;342.36;49517.00;0.17;86.35;;;;;28.30;1.00;;;;;;2280156;60;988;-82
2021/08/04 08:00:36;282857.00;0.94;488.45;65318.00;0.22;113.67;;;;;28.60;1.00;;;;;;2268274;61;984;-79
2021/08/04 08:03:03;386006.00;1.29;665.75;55658.00;0.19;96.97;;;;;28.60;1.00;;;;;;2267617;61;1999;-81
2021/08/04 08:05:30;277181.00;0.92;478.69;67788.00;0.23;117.94;;;;;28.90;1.00;;;;;;2268514;61;1017;-81
2021/08/04 08:08:03;278231.00;0.93;480.50;64249.00;0.21;111.82;;;;;29.50;1.00;;;;;;2261989;61;1104;-79
2021/08/04 08:10:31;317665.00;1.06;548.28;65703.00;0.22;114.33;;;;;29.60;1.00;;;;;;2260489;61;953;-79
2021/08/04 08:13:00;417613.00;1.39;720.09;138870.00;0.46;240.62;;;;;29.90;1.00;;;;;;2253977;61;1400;-79
2021/08/04 08:15:27;354898.00;1.18;612.28;65383.00;0.22;113.78;;;;;29.60;1.00;;;;;;2250684;61;993;-80
2021/08/04 08:17:54;24283.00;0.08;42.69;0.00;0.00;0.62;;;;;29.40;1.00;;;;;;2261222;61;979;-80
2021/08/04 08:22:50;667847.00;2.23;1151.53;61759.00;0.21;107.52;;;;;28.80;1.00;;;;;;2282948;60;1978;-79
2021/08/04 08:25:18;216549.00;0.72;374.41;5260.00;0.02;9.74;;;;;29.40;1.00;;;;;;2281214;60;902;-80
2021/08/04 08:27:46;216073.00;0.72;373.59;0.00;0.00;0.62;;;;;29.50;1.00;;;;;;2281113;60;1004;-80
2021/08/04 08:32:48;191137.00;0.64;330.67;0.00;0.00;0.62;;;;;29.10;1.00;;;;;;2283056;61;1277;-84
2021/08/04 08:35:18;247162.00;0.82;427.07;0.00;0.00;0.62;;;;;28.60;1.00;;;;;;2281135;60;1010;-81
2021/08/04 08:37:46;272707.00;0.91;471.00;0.00;0.00;0.62;;;;;28.00;1.00;;;;;;2281063;60;1028;-81
2021/08/04 08:40:16;276579.00;0.92;477.66;50334.00;0.17;87.76;;;;;28.20;1.00;;;;;;2280992;60;985;-80
2021/08/04 08:42:46;252129.00;0.84;435.61;82455.00;0.27;143.28;;;;;28.50;1.00;;;;;;2267376;61;1918;-83
2021/08/04 08:45:14;265132.00;0.88;457.97;93742.00;0.31;162.77;;;;;28.50;1.00;;;;;;2268426;61;993;-82
2021/08/04 08:47:46;110321.00;0.37;191.38;0.00;0.00;0.62;;;;;28.40;1.00;;;;;;2261656;61;1003;-81
2021/08/04 08:50:14;228289.00;0.76;394.61;0.00;0.00;0.62;;;;;28.10;1.00;;;;;;2258583;61;1001;-81
2021/08/04 08:52:43;0.00;0.00;0.62;0.00;0.00;0.62;;;;;27.70;1.00;;;;;;2268428;61;1361;-80
2021/08/04 08:55:11;8201.00;0.03;14.83;0.00;0.00;0.62;;;;;27.60;1.00;;;;;;2261734;61;1006;-82
2021/08/04 08:57:38;109396.00;0.36;189.79;0.00;0.00;0.62;;;;;27.50;1.00;;;;;;2261669;61;929;-82
2021/08/04 09:00:06;264683.00;0.88;457.20;0.00;0.00;0.62;;;;;27.00;1.00;;;;;;2264205;61;963;-82
2021/08/04 09:02:35;117841.00;0.39;204.36;0.00;0.00;0.62;;;;;27.30;1.00;;;;;;2280943;60;1903;-80
2021/08/04 09:05:07;0.00;0.00;0.62;0.00;0.00;0.62;;;;;27.80;1.00;;;;;;2270561;61;973;-80
2021/08/04 09:07:37;49546.00;0.17;86.40;0.00;0.00;0.62;;;;;28.30;1.00;;;;;;2268245;61;984;-81
2021/08/04 09:10:21;22733.00;0.08;40.00;0.00;0.00;0.62;;;;;28.60;1.00;;;;;;2268246;61;1005;-81
2021/08/04 09:12:50;0.00;0.00;0.62;0.00;0.00;0.62;;;;;28.40;1.00;;;;;;2261533;61;1318;-81
2021/08/04 09:15:25;0.00;0.00;0.62;0.00;0.00;0.62;;;;;28.80;1.00;;;;;;2268072;61;1048;-83
2021/08/04 09:18:04;18284.00;0.06;32.30;0.00;0.00;0.62;;;;;28.40;1.00;;;;;;2267979;61;1037;-82
2021/08/04 09:20:42;0.00;0.00;0.62;0.00;0.00;0.62;;;;;28.00;1.00;;;;;;2261647;61;1029;-81
2021/08/04 09:25:37;0.00;0.00;0.62;0.00;0.00;0.62;;;;;27.40;1.00;;;;;;2282798;60;1412;-80
2021/08/04 09:28:05;98473.00;0.33;170.94;32370.00;0.11;56.69;;;;;27.40;1.00;;;;;;2280886;60;898;-81
2021/08/04 09:30:34;64059.00;0.21;111.49;0.00;0.00;0.62;;;;;27.00;1.00;;;;;;2272340;61;928;-83
2021/08/04 09:33:15;26662.00;0.09;46.80;0.00;0.00;0.62;;;;;26.90;1.00;;;;;;2264560;61;1214;-81
2021/08/04 09:35:48;0.00;0.00;0.62;0.00;0.00;0.62;;;;;26.60;1.00;;;;;;2265624;61;1023;-82
2021/08/04 09:40:46;0.00;0.00;0.62;0.00;0.00;0.62;;;;;26.00;1.00;;;;;;2286367;60;1401;-81
2021/08/04 09:43:24;579502.00;1.93;998.84;193051.00;0.64;333.96;;;;;26.10;1.00;;;;;;2275848;61;1915;-81
2021/08/04 09:45:54;160554.00;0.54;277.99;0.00;0.00;0.62;;;;;26.20;1.00;;;;;;2267831;61;988;-82
2021/08/04 09:48:31;0.00;0.00;0.62;0.00;0.00;0.62;;;;;26.00;1.00;;;;;;2271176;61;946;-82
2021/08/04 09:51:02;423178.00;1.41;729.65;95595.00;0.32;165.97;;;;;25.90;1.00;;;;;;2259889;61;1025;-83
2021/08/04 09:56:11;0.00;0.00;0.62;0.00;0.00;0.62;;;;;25.90;1.00;;;;;;2286440;60;1416;-81
2021/08/04 09:58:41;0.00;0.00;0.62;0.00;0.00;0.62;;;;;26.00;1.00;;;;;;2284827;60;921;-82
2021/08/04 10:01:11;0.00;0.00;0.62;0.00;0.00;0.62;;;;;26.40;1.00;;;;;;2276136;61;1052;-81
2021/08/04 10:03:38;0.00;0.00;0.62;0.00;0.00;0.62;;;;;26.70;1.00;;;;;;2265438;61;1925;-82
2021/08/04 10:06:06;129321.00;0.43;224.16;0.00;0.00;0.62;;;;;26.80;1.00;;;;;;2271998;61;970;-82
2021/08/04 10:08:33;234257.00;0.78;404.87;63939.00;0.21;111.29;;;;;26.40;1.00;;;;;;2272173;61;1048;-80
2021/08/04 10:11:00;78898.00;0.26;137.13;0.00;0.00;0.62;;;;;26.20;1.00;;;;;;2265324;61;1036;-82
2021/08/04 10:18:26;0.00;0.00;0.62;0.00;0.00;0.62;;;;;24.80;1.00;;;;;;2282960;61;1300;-84
2021/08/04 10:30:47;254575.00;0.85;439.82;0.00;0.00;0.62;;;;;25.50;1.00;;;;;;2286044;60;1381;-80
2021/08/04 10:35:46;110728.00;0.37;192.09;0.00;0.00;0.62;;;;;26.00;1.00;;;;;;2286478;60;1381;-83
2021/08/04 10:38:15;203378.00;0.68;351.74;73320.00;0.24;127.50;;;;;26.20;1.00;;;;;;2284499;60;1052;-82
2021/08/04 10:48:41;1458191.00;4.86;2564.69;63036.00;0.21;109.72;;;;;26.10;1.00;;;;;;2277973;60;1398;-82
2021/08/04 10:51:27;363742.00;1.21;627.48;115225.00;0.38;199.85;;;;;26.10;1.00;;;;;;2276688;60;1000;-83
2021/08/04 10:54:20;187090.00;0.62;323.70;37366.00;0.12;65.33;;;;;26.20;1.00;;;;;;2263914;61;925;-85
2021/08/04 10:57:09;99183.00;0.33;172.16;0.00;0.00;0.62;;;;;26.60;1.00;;;;;;2263906;61;1796;-80
2021/08/04 10:59:39;227797.00;0.76;393.76;53721.00;0.18;93.62;;;;;26.00;1.00;;;;;;2264167;61;1018;-83
2021/08/04 11:14:54;1569990.00;5.23;2775.52;0.00;0.00;0.62;;;;;26.70;1.00;;;;;;2278093;60;1398;-83
2021/08/04 11:17:25;29396.00;0.10;51.54;0.00;0.00;0.62;;;;;27.10;1.00;;;;;;2269336;61;972;-85
2021/08/04 11:20:14;207907.00;0.69;359.53;89225.00;0.30;154.97;;;;;26.80;1.00;;;;;;2276879;60;993;-83
2021/08/04 11:30:33;150302.00;0.50;260.33;0.00;0.00;0.62;;;;;28.00;1.00;;;;;;2278598;60;1323;-81
2021/08/04 11:33:30;158448.00;0.53;274.37;0.00;0.00;0.62;;;;;27.40;1.00;;;;;;2276776;61;1284;-83
2021/08/04 11:40:56;17732.00;0.06;31.34;0.00;0.00;0.62;;;;;27.30;1.00;;;;;;2278743;60;1397;-79
2021/08/04 11:48:55;778664.00;2.60;1343.94;0.00;0.00;0.62;;;;;27.30;1.00;;;;;;2278977;60;1330;-82
2021/08/04 11:51:33;264783.00;0.88;457.37;53061.00;0.18;92.48;;;;;27.40;1.00;;;;;;2276912;60;1363;-84
2021/08/04 11:54:01;394858.00;1.32;680.97;64287.00;0.21;111.89;;;;;27.70;1.00;;;;;;2272324;61;997;-83
2021/08/04 11:59:01;171913.00;0.57;297.56;70170.00;0.23;122.05;;;;;26.90;1.00;;;;;;2278783;61;1366;-84
2021/08/04 12:01:28;167034.00;0.56;289.16;71995.00;0.24;125.21;;;;;27.10;1.00;;;;;;2277187;60;1329;-82
2021/08/04 12:04:14;168646.00;0.56;291.93;62643.00;0.21;109.05;;;;;27.30;1.00;;;;;;2277201;60;1915;-81
2021/08/04 12:06:41;188267.00;0.63;325.72;66246.00;0.22;115.27;;;;;27.50;1.00;;;;;;2269932;61;986;-80
2021/08/04 12:09:22;172382.00;0.57;298.37;69829.00;0.23;121.46;;;;;28.00;1.00;;;;;;2273036;61;1009;-82
2021/08/04 12:11:50;197148.00;0.66;341.01;0.00;0.00;0.62;;;;;28.20;1.00;;;;;;2277082;61;1428;-83
2021/08/04 12:14:20;17890.00;0.06;31.62;0.00;0.00;0.62;;;;;28.60;1.00;;;;;;2273257;60;968;-83
2021/08/04 12:16:49;275890.00;0.92;476.47;92836.00;0.31;161.20;;;;;28.70;1.00;;;;;;2276387;60;1012;-81
2021/08/04 12:19:39;36600.00;0.12;64.01;0.00;0.00;0.62;;;;;28.50;1.00;;;;;;2273534;60;1056;-81
2021/08/04 12:22:09;0.00;0.00;0.62;0.00;0.00;0.62;;;;;27.80;1.00;;;;;;2277014;60;1261;-82
2021/08/04 12:24:44;0.00;0.00;0.62;0.00;0.00;0.62;;;;;27.60;1.00;;;;;;2272995;61;1994;-82
2021/08/04 12:27:11;24365.00;0.08;42.83;0.00;0.00;0.62;;;;;26.80;1.00;;;;;;2277078;60;1032;-81
2021/08/04 12:29:39;15283.00;0.05;27.10;0.00;0.00;0.62;;;;;26.60;1.00;;;;;;2276216;60;1032;-80
2021/08/04 12:32:14;188005.00;0.63;325.27;66692.00;0.22;116.04;;;;;26.70;1.00;;;;;;2268205;61;1282;-82
2021/08/04 12:34:56;166806.00;0.56;288.76;70932.00;0.24;123.37;;;;;26.90;1.00;;;;;;2268373;61;962;-81
2021/08/04 12:37:24;412000.00;1.37;710.44;178082.00;0.59;308.19;;;;;27.00;1.00;;;;;;2258555;61;957;-85
2021/08/04 12:39:51;171755.00;0.57;297.29;64693.00;0.22;112.59;;;;;27.10;1.00;;;;;;2268293;61;1050;-83
2021/08/04 12:42:19;250785.00;0.84;433.30;60975.00;0.20;106.16;;;;;27.50;1.00;;;;;;2268191;61;1266;-84
2021/08/04 12:44:47;250341.00;0.83;432.54;47432.00;0.16;82.74;;;;;27.30;1.00;;;;;;2264248;61;1916;-81
2021/08/04 12:47:16;207179.00;0.69;358.28;65711.00;0.22;114.35;;;;;27.00;1.00;;;;;;2257253;61;1053;-82
2021/08/04 12:49:46;235326.00;0.78;406.71;66712.00;0.22;116.08;;;;;26.80;1.00;;;;;;2265550;61;1053;-81
2021/08/04 12:52:13;203253.00;0.68;351.52;73155.00;0.24;127.21;;;;;26.70;1.00;;;;;;2272315;61;1341;-82
2021/08/04 12:54:41;187852.00;0.63;325.01;66358.00;0.22;115.47;;;;;26.90;1.00;;;;;;2262281;61;982;-82
2021/08/04 12:57:21;204632.00;0.68;353.90;48994.00;0.16;85.45;;;;;27.10;1.00;;;;;;2272199;61;970;-81
2021/08/04 12:59:48;242469.00;0.81;419.00;54355.00;0.18;94.72;;;;;26.80;1.00;;;;;;2272197;61;1060;-81
2021/08/04 13:02:15;211696.00;0.71;366.05;67551.00;0.23;117.53;;;;;27.00;1.00;;;;;;2273389;60;1523;-85